Time;durP1;ratioP1;P1;durP2;ratioP2;P2;SDS_P1;SDS_P2;PMS_P1;PMS_P2;Temp;Humidity;BMP_temperature;BMP_pressure;BME280_temperature;BME280_humidity;BME280_pressure;Samples;Min_cycle;Max_cycle;Signal;HPM_P1;HPM_P2
2021/01/17 00:03:31;;;;;;;9.82;4.38;;;;;;;;;;8193321;28;20112;-70
2021/01/17 00:07:34;;;;;;;7.47;3.85;;;;;;;;;;8261165;28;20053;-72
2021/01/17 00:11:38;;;;;;;8.63;3.95;;;;;;;;;;8260364;28;20369;-70
2021/01/17 00:15:42;;;;;;;9.40;3.00;;;;;;;;;;8274642;28;20071;-69
2021/01/17 00:19:46;;;;;;;7.38;3.08;;;;;;;;;;8260153;28;20475;-70
2021/01/17 00:23:49;;;;;;;7.45;2.90;;;;;;;;;;8258783;28;20483;-70
2021/01/17 00:27:53;;;;;;;6.68;3.40;;;;;;;;;;8287914;28;20363;-69
2021/01/17 00:31:56;;;;;;;9.48;3.72;;;;;;;;;;8291388;28;20382;-69
2021/01/17 00:35:59;;;;;;;6.70;3.42;;;;;;;;;;8293055;28;20383;-70
2021/01/17 00:40:04;;;;;;;11.50;3.50;;;;;;;;;;8291054;28;20458;-69
2021/01/17 00:44:07;;;;;;;9.43;3.95;;;;;;;;;;8292572;28;20482;-69
2021/01/17 00:48:10;;;;;;;9.75;3.70;;;;;;;;;;8292143;28;20475;-70
2021/01/17 00:52:21;;;;;;;9.63;3.55;;;;;;;;;;8274431;28;20375;-69
2021/01/17 00:56:26;;;;;;;10.73;4.57;;;;;;;;;;8274887;28;20356;-69
2021/01/17 01:00:30;;;;;;;9.65;4.13;;;;;;;;;;8291932;28;20463;-69
2021/01/17 01:05:02;;;;;;;7.25;3.88;;;;;;;;;;8274704;28;20493;-70
2021/01/17 01:09:15;;;;;;;9.73;4.47;;;;;;;;;;8291360;28;20406;-69
2021/01/17 01:13:18;;;;;;;12.73;4.38;;;;;;;;;;8274475;28;20371;-69
2021/01/17 01:17:25;;;;;;;22.42;5.90;;;;;;;;;;8291265;28;20352;-69
2021/01/17 01:21:34;;;;;;;9.95;5.18;;;;;;;;;;8290899;28;20497;-69
2021/01/17 01:25:37;;;;;;;11.85;4.93;;;;;;;;;;8271847;28;20463;-69
2021/01/17 01:29:40;;;;;;;12.20;5.00;;;;;;;;;;8289585;28;20386;-69
2021/01/17 01:33:43;;;;;;;10.75;4.50;;;;;;;;;;8290073;28;20459;-69
2021/01/17 01:37:46;;;;;;;13.02;4.60;;;;;;;;;;8290922;28;20477;-69
2021/01/17 01:41:50;;;;;;;11.00;4.55;;;;;;;;;;8288924;28;20096;-70
2021/01/17 01:45:57;;;;;;;12.30;5.13;;;;;;;;;;8290805;28;20048;-69
2021/01/17 01:50:00;;;;;;;12.00;5.55;;;;;;;;;;8288734;28;20414;-69
2021/01/17 01:54:03;;;;;;;10.30;4.30;;;;;;;;;;8289722;28;20360;-68
2021/01/17 01:58:07;;;;;;;12.77;4.90;;;;;;;;;;8272343;28;20382;-69
2021/01/17 02:02:10;;;;;;;12.30;5.00;;;;;;;;;;8272050;28;20501;-69
2021/01/17 02:06:22;;;;;;;11.57;5.30;;;;;;;;;;8288173;28;20381;-70
2021/01/17 02:10:26;;;;;;;14.32;5.15;;;;;;;;;;8272079;28;20463;-69
2021/01/17 02:14:32;;;;;;;11.05;5.25;;;;;;;;;;8255652;28;20356;-69
2021/01/17 02:18:42;;;;;;;14.90;5.18;;;;;;;;;;8238221;28;20467;-69
2021/01/17 02:23:01;;;;;;;11.25;5.43;;;;;;;;;;8289496;28;20406;-69
2021/01/17 02:27:05;;;;;;;15.52;6.22;;;;;;;;;;8273003;28;20383;-74
2021/01/17 02:31:14;;;;;;;;;;;;;;;;;;8287919;28;20509;-69
2021/01/17 02:35:20;;;;;;;9.27;5.15;;;;;;;;;;8271554;28;19920;-69
2021/01/17 02:39:35;;;;;;;12.35;5.03;;;;;;;;;;8289249;28;20049;-69
2021/01/17 02:43:41;;;;;;;15.52;5.80;;;;;;;;;;8172202;28;20505;-70
2021/01/17 02:47:45;;;;;;;10.50;5.28;;;;;;;;;;8172252;28;20072;-69
2021/01/17 02:51:49;;;;;;;9.43;5.15;;;;;;;;;;8171517;28;20504;-69
2021/01/17 02:56:00;;;;;;;11.95;5.53;;;;;;;;;;8171745;28;20500;-69
2021/01/17 03:00:10;;;;;;;9.95;5.07;;;;;;;;;;8170760;28;20077;-69
2021/01/17 03:04:23;;;;;;;13.40;5.40;;;;;;;;;;8155918;28;20380;-69
2021/01/17 03:08:28;;;;;;;11.40;4.60;;;;;;;;;;8172286;28;20471;-69
2021/01/17 03:12:31;;;;;;;11.05;4.82;;;;;;;;;;8185180;28;20417;-69
2021/01/17 03:16:35;;;;;;;9.23;4.35;;;;;;;;;;8288741;28;20478;-69
2021/01/17 03:20:38;;;;;;;8.43;4.30;;;;;;;;;;8271010;28;20473;-69
2021/01/17 03:24:41;;;;;;;11.68;5.10;;;;;;;;;;8288351;28;20048;-68
2021/01/17 03:28:44;;;;;;;9.02;4.88;;;;;;;;;;8270508;28;20382;-70
2021/01/17 03:32:47;;;;;;;13.45;5.28;;;;;;;;;;8288733;28;20066;-69
2021/01/17 03:36:51;;;;;;;12.05;5.63;;;;;;;;;;8288210;28;20360;-69
2021/01/17 03:40:54;;;;;;;12.65;5.35;;;;;;;;;;8286877;28;20379;-69
2021/01/17 03:44:57;;;;;;;9.48;4.68;;;;;;;;;;8287257;28;20126;-69
2021/01/17 03:49:00;;;;;;;14.07;5.47;;;;;;;;;;8271108;28;20049;-69
2021/01/17 03:53:04;;;;;;;9.82;4.72;;;;;;;;;;8276270;28;20481;-69
2021/01/17 03:57:06;;;;;;;10.85;4.80;;;;;;;;;;8276135;28;20063;-69
2021/01/17 04:01:10;;;;;;;11.13;4.80;;;;;;;;;;8292834;28;20053;-69
2021/01/17 04:05:13;;;;;;;12.55;5.38;;;;;;;;;;8293936;28;20493;-69
2021/01/17 04:09:16;;;;;;;9.55;6.00;;;;;;;;;;8275528;28;20402;-69
2021/01/17 04:13:20;;;;;;;11.38;5.10;;;;;;;;;;8291802;28;20497;-69
2021/01/17 04:17:23;;;;;;;9.68;5.25;;;;;;;;;;8293535;28;20447;-69
2021/01/17 04:21:26;;;;;;;12.48;5.47;;;;;;;;;;8291435;28;20486;-68
2021/01/17 04:25:29;;;;;;;12.18;5.45;;;;;;;;;;8291074;28;20397;-68
2021/01/17 04:29:32;;;;;;;11.98;5.45;;;;;;;;;;8292621;28;20068;-69
2021/01/17 04:33:36;;;;;;;18.33;6.38;;;;;;;;;;8292366;28;20505;-69
2021/01/17 04:37:39;;;;;;;16.98;6.60;;;;;;;;;;8292789;28;20379;-69
2021/01/17 04:41:45;;;;;;;22.55;7.13;;;;;;;;;;8289747;28;20374;-68
2021/01/17 04:45:50;;;;;;;15.82;7.97;;;;;;;;;;8291511;28;20391;-69
2021/01/17 04:49:57;;;;;;;12.93;7.03;;;;;;;;;;8274504;28;20486;-69
2021/01/17 04:54:03;;;;;;;16.63;5.90;;;;;;;;;;8275047;28;20386;-69
2021/01/17 04:58:19;;;;;;;17.08;8.15;;;;;;;;;;8274328;28;20134;-69
2021/01/17 05:03:14;;;;;;;13.95;6.40;;;;;;;;;;8292058;28;20057;-69
2021/01/17 05:07:23;;;;;;;14.95;6.20;;;;;;;;;;8264839;28;20482;-69
2021/01/17 05:11:40;;;;;;;22.27;7.50;;;;;;;;;;8257735;28;20409;-69
2021/01/17 05:15:45;;;;;;;8.88;5.65;;;;;;;;;;8274207;28;20379;-69
2021/01/17 05:19:48;;;;;;;13.55;6.22;;;;;;;;;;8272744;28;20391;-69
2021/01/17 05:23:59;;;;;;;12.10;6.45;;;;;;;;;;8273257;28;20390;-69
2021/01/17 05:28:02;;;;;;;10.88;5.70;;;;;;;;;;8256733;28;20464;-69
2021/01/17 05:32:06;;;;;;;17.63;6.68;;;;;;;;;;8272968;28;20501;-69
2021/01/17 05:36:16;;;;;;;13.60;6.38;;;;;;;;;;8258075;28;20057;-69
2021/01/17 05:40:20;;;;;;;17.88;6.72;;;;;;;;;;8272426;28;20106;-69
2021/01/17 05:44:30;;;;;;;13.00;6.18;;;;;;;;;;8271433;28;20486;-69
2021/01/17 05:48:49;;;;;;;13.70;6.35;;;;;;;;;;8256604;28;20410;-69
2021/01/17 05:52:57;;;;;;;11.23;6.57;;;;;;;;;;8255572;28;20390;-69
2021/01/17 05:57:00;;;;;;;18.80;5.43;;;;;;;;;;8257840;28;20488;-70
2021/01/17 06:01:20;;;;;;;14.65;6.05;;;;;;;;;;8272457;28;20471;-69
2021/01/17 06:05:23;;;;;;;20.08;6.97;;;;;;;;;;8256038;28;20482;-69
2021/01/17 06:09:27;;;;;;;19.45;7.90;;;;;;;;;;8255497;28;20045;-69
2021/01/17 06:13:31;;;;;;;14.05;6.28;;;;;;;;;;8256697;28;20041;-70
2021/01/17 06:17:45;;;;;;;10.48;6.28;;;;;;;;;;8271383;28;20049;-69
2021/01/17 06:21:48;;;;;;;21.70;7.03;;;;;;;;;;8256072;28;20411;-69
2021/01/17 06:26:10;;;;;;;16.27;6.88;;;;;;;;;;8268600;28;20459;-69
2021/01/17 06:30:18;;;;;;;16.58;7.60;;;;;;;;;;8289623;28;20459;-69
2021/01/17 06:34:22;;;;;;;19.40;9.60;;;;;;;;;;8289610;28;20481;-69
2021/01/17 06:38:25;;;;;;;26.20;11.52;;;;;;;;;;8271844;28;20493;-69
2021/01/17 06:42:28;;;;;;;22.02;9.30;;;;;;;;;;8289329;28;20048;-69
2021/01/17 06:46:39;;;;;;;21.58;10.70;;;;;;;;;;8289441;28;20481;-69
2021/01/17 06:50:42;;;;;;;24.40;11.35;;;;;;;;;;8257691;28;20410;-69
2021/01/17 06:54:55;;;;;;;22.13;9.93;;;;;;;;;;8287018;28;20108;-69
2021/01/17 06:58:57;;;;;;;19.15;8.23;;;;;;;;;;8272958;28;20560;-69
2021/01/17 07:03:16;;;;;;;19.42;8.88;;;;;;;;;;8300315;28;20374;-69
2021/01/17 07:08:04;;;;;;;21.23;9.45;;;;;;;;;;8282305;28;20482;-69
2021/01/17 07:12:42;;;;;;;23.90;8.98;;;;;;;;;;8165999;28;20461;-69
2021/01/17 07:16:52;;;;;;;22.98;10.18;;;;;;;;;;8253070;28;20389;-69
2021/01/17 07:21:00;;;;;;;17.98;9.07;;;;;;;;;;8318438;28;20370;-69
2021/01/17 07:25:07;;;;;;;28.95;10.48;;;;;;;;;;8303303;28;20051;-69
2021/01/17 07:29:17;;;;;;;38.92;15.00;;;;;;;;;;8305998;28;20048;-69
2021/01/17 07:33:35;;;;;;;56.63;24.63;;;;;;;;;;8307453;28;20381;-70
2021/01/17 07:37:44;;;;;;;45.63;19.50;;;;;;;;;;8305381;28;20064;-70
2021/01/17 07:41:50;;;;;;;47.13;20.02;;;;;;;;;;8325256;28;20356;-68
2021/01/17 07:45:56;;;;;;;37.00;14.02;;;;;;;;;;8306011;28;20079;-69
2021/01/17 07:50:00;;;;;;;40.15;14.98;;;;;;;;;;8322883;28;20461;-69
2021/01/17 07:54:25;;;;;;;36.38;14.35;;;;;;;;;;8303003;28;20056;-71
2021/01/17 07:58:32;;;;;;;33.15;13.02;;;;;;;;;;8288534;28;20474;-69
2021/01/17 08:02:36;;;;;;;35.03;12.27;;;;;;;;;;8290345;28;20378;-70
2021/01/17 08:06:45;;;;;;;29.15;11.50;;;;;;;;;;8289100;28;20056;-69
2021/01/17 08:10:48;;;;;;;37.43;15.63;;;;;;;;;;8289101;28;20048;-69
2021/01/17 08:15:11;;;;;;;35.25;15.35;;;;;;;;;;8268969;28;20417;-69
2021/01/17 08:19:40;;;;;;;28.17;13.70;;;;;;;;;;8290909;28;20378;-70
2021/01/17 08:24:14;;;;;;;29.25;13.85;;;;;;;;;;8291011;28;20470;-70
2021/01/17 08:28:30;;;;;;;24.67;10.63;;;;;;;;;;8288884;28;20471;-70
2021/01/17 08:32:36;;;;;;;24.10;11.40;;;;;;;;;;8296655;28;20375;-69
2021/01/17 08:36:40;;;;;;;29.48;11.70;;;;;;;;;;8320609;28;20370;-70
2021/01/17 08:40:51;;;;;;;22.00;10.32;;;;;;;;;;8304534;28;20413;-69
2021/01/17 08:44:55;;;;;;;26.90;12.10;;;;;;;;;;8320599;28;20397;-69
2021/01/17 08:48:58;;;;;;;30.10;17.00;;;;;;;;;;8319953;28;20386;-69
2021/01/17 08:53:29;;;;;;;31.25;11.93;;;;;;;;;;8301800;28;20373;-70
2021/01/17 08:57:43;;;;;;;25.42;10.52;;;;;;;;;;8318067;28;20478;-69
2021/01/17 09:01:59;;;;;;;21.02;9.73;;;;;;;;;;8320684;28;20063;-69
2021/01/17 09:06:25;;;;;;;24.58;11.52;;;;;;;;;;8302715;28;20405;-68
2021/01/17 09:10:32;;;;;;;25.35;11.07;;;;;;;;;;8322042;28;20078;-69
2021/01/17 09:14:35;;;;;;;20.90;10.10;;;;;;;;;;8289866;28;20475;-69
2021/01/17 09:18:39;;;;;;;25.92;11.13;;;;;;;;;;8283917;28;20402;-70
2021/01/17 09:22:44;;;;;;;32.55;13.85;;;;;;;;;;8302306;28;20330;-70
2021/01/17 09:26:54;;;;;;;137.48;35.25;;;;;;;;;;8319500;28;20373;-69
2021/01/17 09:31:00;;;;;;;29.60;13.35;;;;;;;;;;8302645;28;20044;-69
2021/01/17 09:35:07;;;;;;;24.08;9.52;;;;;;;;;;8317883;28;20442;-70
2021/01/17 09:39:10;;;;;;;79.97;26.58;;;;;;;;;;8302236;28;20374;-70
2021/01/17 09:43:16;;;;;;;64.47;27.38;;;;;;;;;;8306817;28;20459;-70
2021/01/17 09:47:21;;;;;;;46.80;20.15;;;;;;;;;;8265620;28;20036;-70
2021/01/17 09:51:28;;;;;;;23.23;9.82;;;;;;;;;;8265131;28;20367;-69
2021/01/17 09:55:39;;;;;;;50.25;19.15;;;;;;;;;;8318200;28;20067;-72
2021/01/17 09:59:43;;;;;;;64.97;20.77;;;;;;;;;;8318809;28;20368;-70
2021/01/17 10:03:49;;;;;;;23.95;10.75;;;;;;;;;;8300549;28;20074;-70
2021/01/17 10:08:04;;;;;;;49.67;23.25;;;;;;;;;;8296031;28;20348;-70
2021/01/17 10:12:07;;;;;;;31.55;15.35;;;;;;;;;;8299867;28;20366;-68
2021/01/17 10:16:11;;;;;;;27.73;13.32;;;;;;;;;;8302703;28;20501;-68
2021/01/17 10:20:29;;;;;;;31.17;16.58;;;;;;;;;;8301924;28;20508;-69
2021/01/17 10:24:37;;;;;;;29.60;13.00;;;;;;;;;;8266153;28;20473;-69
2021/01/17 10:28:41;;;;;;;46.58;18.65;;;;;;;;;;8280163;28;20351;-69
2021/01/17 10:32:45;;;;;;;61.05;23.17;;;;;;;;;;8300196;28;20408;-69
2021/01/17 10:36:50;;;;;;;96.70;32.13;;;;;;;;;;8314270;28;20489;-69
2021/01/17 10:40:53;;;;;;;108.03;33.17;;;;;;;;;;8316600;28;20425;-69
2021/01/17 10:45:02;;;;;;;129.80;37.95;;;;;;;;;;8312371;28;20486;-69
2021/01/17 10:49:12;;;;;;;139.52;73.50;;;;;;;;;;8295068;28;20599;-69
2021/01/17 10:53:46;;;;;;;59.95;23.75;;;;;;;;;;8266250;28;20051;-69
2021/01/17 10:57:52;;;;;;;85.30;23.17;;;;;;;;;;8313843;28;20087;-68
2021/01/17 11:01:55;;;;;;;49.58;20.05;;;;;;;;;;8324146;28;20477;-69
2021/01/17 11:06:21;;;;;;;45.47;18.23;;;;;;;;;;8306741;28;20386;-69
2021/01/17 11:10:25;;;;;;;43.22;15.10;;;;;;;;;;8322036;28;20466;-69
2021/01/17 11:14:31;;;;;;;28.13;12.93;;;;;;;;;;8322484;28;20402;-72
2021/01/17 11:18:36;;;;;;;27.17;13.52;;;;;;;;;;8304134;28;20489;-70
2021/01/17 11:22:41;;;;;;;53.30;21.58;;;;;;;;;;8305074;28;20052;-69
2021/01/17 11:26:44;;;;;;;40.03;19.25;;;;;;;;;;8302314;28;20386;-69
2021/01/17 11:30:47;;;;;;;43.13;16.25;;;;;;;;;;8256001;28;20474;-69
2021/01/17 11:34:50;;;;;;;60.88;22.25;;;;;;;;;;8322171;28;20056;-69
2021/01/17 11:38:59;;;;;;;84.50;25.25;;;;;;;;;;8269913;28;20378;-69
2021/01/17 11:43:11;;;;;;;74.97;22.92;;;;;;;;;;8323661;28;20080;-69
2021/01/17 11:47:20;;;;;;;57.92;19.10;;;;;;;;;;8285649;28;20466;-70
2021/01/17 11:51:24;;;;;;;62.78;23.45;;;;;;;;;;8324269;28;20486;-68
2021/01/17 11:55:29;;;;;;;63.45;27.90;;;;;;;;;;8321251;28;20056;-67
2021/01/17 11:59:35;;;;;;;50.47;18.85;;;;;;;;;;8298315;28;20367;-69
2021/01/17 12:03:43;;;;;;;61.72;20.38;;;;;;;;;;8323453;28;20390;-70
2021/01/17 12:07:58;;;;;;;101.78;32.13;;;;;;;;;;8304121;28;20415;-70
2021/01/17 12:12:19;;;;;;;90.45;26.70;;;;;;;;;;8302604;28;20505;-69
2021/01/17 12:16:34;;;;;;;78.80;23.92;;;;;;;;;;8302010;28;20478;-69
2021/01/17 12:20:38;;;;;;;54.60;20.05;;;;;;;;;;8314071;28;20409;-69
2021/01/17 12:24:41;;;;;;;58.35;21.08;;;;;;;;;;8288328;28;20486;-69
2021/01/17 12:28:45;;;;;;;56.10;20.50;;;;;;;;;;8286561;28;20418;-70
2021/01/17 12:32:53;;;;;;;54.30;19.63;;;;;;;;;;8287900;28;20391;-72
2021/01/17 12:36:56;;;;;;;60.38;19.15;;;;;;;;;;8286877;28;20360;-69
2021/01/17 12:41:01;;;;;;;86.28;26.17;;;;;;;;;;8276628;28;20390;-69
2021/01/17 12:45:08;;;;;;;69.63;22.63;;;;;;;;;;8274498;28;20471;-71
2021/01/17 12:49:17;;;;;;;55.30;17.90;;;;;;;;;;8293523;28;20485;-70
2021/01/17 12:53:19;;;;;;;38.77;14.17;;;;;;;;;;8321188;28;20486;-70
2021/01/17 12:57:22;;;;;;;42.80;15.63;;;;;;;;;;8312325;28;20501;-69
2021/01/17 13:01:26;;;;;;;37.35;15.15;;;;;;;;;;8315843;28;20373;-69
2021/01/17 13:05:32;;;;;;;33.78;12.10;;;;;;;;;;8287692;28;20078;-69
2021/01/17 13:09:36;;;;;;;33.33;14.30;;;;;;;;;;8270513;28;20462;-69
2021/01/17 13:13:41;;;;;;;66.00;22.27;;;;;;;;;;8287524;28;20110;-70
2021/01/17 13:17:44;;;;;;;81.55;31.98;;;;;;;;;;8315605;28;20459;-70
2021/01/17 13:21:50;;;;;;;49.38;18.98;;;;;;;;;;8317836;28;20483;-69
2021/01/17 13:25:53;;;;;;;122.25;38.13;;;;;;;;;;8309476;28;20483;-70
2021/01/17 13:29:56;;;;;;;152.27;44.10;;;;;;;;;;8319657;28;20082;-70
2021/01/17 13:34:00;;;;;;;60.03;20.88;;;;;;;;;;8216570;28;20460;-69
2021/01/17 13:38:03;;;;;;;79.90;28.30;;;;;;;;;;8214682;28;20049;-69
2021/01/17 13:42:06;;;;;;;49.85;18.40;;;;;;;;;;8200118;28;20385;-70
2021/01/17 13:46:14;;;;;;;50.10;21.35;;;;;;;;;;8199499;28;20487;-70
2021/01/17 13:50:18;;;;;;;36.72;15.13;;;;;;;;;;8151767;28;20484;-70
2021/01/17 13:54:21;;;;;;;80.68;27.92;;;;;;;;;;8217112;28;20380;-71
2021/01/17 13:58:25;;;;;;;67.63;20.52;;;;;;;;;;8198663;28;20390;-70
2021/01/17 14:02:29;;;;;;;75.88;24.98;;;;;;;;;;8198982;28;20481;-69
2021/01/17 14:06:38;;;;;;;57.28;21.70;;;;;;;;;;8195640;28;20452;-69
2021/01/17 14:10:42;;;;;;;67.60;25.52;;;;;;;;;;8248316;28;20044;-68
2021/01/17 14:14:45;;;;;;;57.05;21.17;;;;;;;;;;8301705;28;20478;-70
2021/01/17 14:18:48;;;;;;;57.70;22.52;;;;;;;;;;8317697;28;20378;-68
2021/01/17 14:22:53;;;;;;;96.00;31.10;;;;;;;;;;8316798;28;20048;-68
2021/01/17 14:26:58;;;;;;;191.52;61.70;;;;;;;;;;8319284;28;20492;-68
2021/01/17 14:31:01;;;;;;;110.32;43.88;;;;;;;;;;8321152;28;20048;-68
2021/01/17 14:35:07;;;;;;;96.72;31.55;;;;;;;;;;8239401;28;20508;-68
2021/01/17 14:39:14;;;;;;;135.18;35.97;;;;;;;;;;8299980;28;20386;-69
2021/01/17 14:43:18;;;;;;;124.72;33.10;;;;;;;;;;8322071;28;20374;-68
2021/01/17 14:47:21;;;;;;;146.75;40.47;;;;;;;;;;8322762;28;20363;-69
2021/01/17 14:51:25;;;;;;;173.40;45.30;;;;;;;;;;8322106;28;20368;-69
2021/01/17 14:55:29;;;;;;;223.82;55.45;;;;;;;;;;8322271;28;20366;-68
2021/01/17 14:59:32;;;;;;;189.95;50.47;;;;;;;;;;8320987;28;20386;-68
2021/01/17 15:03:38;;;;;;;171.40;39.58;;;;;;;;;;8322313;28;20401;-68
2021/01/17 15:07:41;;;;;;;88.40;25.88;;;;;;;;;;8321990;28;20462;-68
2021/01/17 15:11:45;;;;;;;121.03;35.28;;;;;;;;;;8320298;28;20370;-69
2021/01/17 15:15:48;;;;;;;116.70;32.88;;;;;;;;;;8303599;28;20369;-68
2021/01/17 15:19:51;;;;;;;119.05;36.47;;;;;;;;;;8321778;28;20421;-68
2021/01/17 15:23:54;;;;;;;45.28;16.42;;;;;;;;;;8321855;28;20370;-67
2021/01/17 15:27:57;;;;;;;130.27;33.33;;;;;;;;;;8320691;28;20405;-68
2021/01/17 15:32:05;;;;;;;161.13;42.20;;;;;;;;;;8321766;28;20371;-67
2021/01/17 15:36:16;;;;;;;200.60;47.50;;;;;;;;;;8321429;28;20478;-68
2021/01/17 15:40:20;;;;;;;56.95;22.17;;;;;;;;;;8320360;28;20480;-67
2021/01/17 15:44:23;;;;;;;84.45;26.63;;;;;;;;;;8321176;28;20493;-68
2021/01/17 15:48:26;;;;;;;83.38;27.48;;;;;;;;;;8326779;28;20386;-67
2021/01/17 15:52:29;;;;;;;50.03;18.23;;;;;;;;;;8326056;28;20496;-67
2021/01/17 15:56:32;;;;;;;62.20;20.52;;;;;;;;;;8308956;28;20114;-68
2021/01/17 16:00:36;;;;;;;75.13;23.73;;;;;;;;;;8308679;28;20048;-68
2021/01/17 16:04:39;;;;;;;90.90;30.20;;;;;;;;;;8275020;28;20381;-68
2021/01/17 16:08:42;;;;;;;169.82;50.42;;;;;;;;;;8306445;28;20355;-68
2021/01/17 16:12:46;;;;;;;116.40;36.65;;;;;;;;;;8308291;28;20052;-68
2021/01/17 16:16:49;;;;;;;89.03;27.50;;;;;;;;;;8324537;28;20408;-68
2021/01/17 16:20:52;;;;;;;44.47;17.00;;;;;;;;;;8277473;28;20040;-68
2021/01/17 16:24:55;;;;;;;37.90;14.77;;;;;;;;;;8325470;28;20478;-67
2021/01/17 16:28:58;;;;;;;33.75;14.25;;;;;;;;;;8307744;28;20083;-68
2021/01/17 16:33:05;;;;;;;43.65;18.33;;;;;;;;;;8326063;28;20466;-68
2021/01/17 16:37:08;;;;;;;73.32;28.15;;;;;;;;;;8284248;28;20048;-68
2021/01/17 16:41:11;;;;;;;83.72;29.05;;;;;;;;;;8313660;28;20401;-68
2021/01/17 16:45:17;;;;;;;81.47;26.10;;;;;;;;;;8248974;28;20429;-68
2021/01/17 16:49:20;;;;;;;102.05;32.13;;;;;;;;;;8288044;28;20415;-67
2021/01/17 16:53:23;;;;;;;71.97;23.65;;;;;;;;;;8315014;28;20381;-67
2021/01/17 16:57:28;;;;;;;96.50;33.38;;;;;;;;;;8322205;28;20359;-69
2021/01/17 17:01:43;;;;;;;81.18;29.90;;;;;;;;;;8306719;28;20467;-68
2021/01/17 17:05:46;;;;;;;75.57;29.25;;;;;;;;;;8306987;28;20481;-67
2021/01/17 17:09:49;;;;;;;87.82;31.88;;;;;;;;;;8320312;28;20478;-68
2021/01/17 17:13:52;;;;;;;106.53;39.22;;;;;;;;;;8304911;28;20066;-68
2021/01/17 17:17:56;;;;;;;127.57;44.42;;;;;;;;;;8306831;28;20421;-68
2021/01/17 17:22:00;;;;;;;148.77;47.10;;;;;;;;;;8324678;28;20454;-69
2021/01/17 17:26:03;;;;;;;161.52;51.22;;;;;;;;;;8324499;28;20463;-68
2021/01/17 17:30:07;;;;;;;156.77;49.78;;;;;;;;;;8305987;28;20471;-68
2021/01/17 17:34:13;;;;;;;202.35;58.95;;;;;;;;;;8305735;28;20378;-68
2021/01/17 17:38:17;;;;;;;141.85;46.28;;;;;;;;;;8306438;28;20377;-68
2021/01/17 17:42:22;;;;;;;167.45;50.42;;;;;;;;;;8302368;28;20497;-68
2021/01/17 17:46:26;;;;;;;195.65;65.13;;;;;;;;;;8323312;28;20458;-68
2021/01/17 17:50:29;;;;;;;310.13;99.03;;;;;;;;;;8305577;28;20473;-69
2021/01/17 17:54:36;;;;;;;213.70;76.88;;;;;;;;;;8320441;28;20378;-68
2021/01/17 17:58:40;;;;;;;152.90;49.45;;;;;;;;;;8288648;28;20412;-68
2021/01/17 18:02:43;;;;;;;255.05;88.82;;;;;;;;;;8320730;28;20382;-68
2021/01/17 18:06:47;;;;;;;221.55;76.82;;;;;;;;;;8253008;28;20041;-68
2021/01/17 18:10:50;;;;;;;127.43;41.75;;;;;;;;;;8250023;28;20445;-69
2021/01/17 18:14:56;;;;;;;103.65;35.80;;;;;;;;;;8252598;28;20383;-69
2021/01/17 18:18:59;;;;;;;107.85;38.90;;;;;;;;;;8252643;28;20482;-67
2021/01/17 18:23:02;;;;;;;102.75;35.33;;;;;;;;;;8236285;28;20471;-67
2021/01/17 18:27:05;;;;;;;94.53;37.42;;;;;;;;;;8235886;28;20075;-67
2021/01/17 18:31:09;;;;;;;77.28;29.98;;;;;;;;;;8235935;28;20364;-71
2021/01/17 18:35:14;;;;;;;74.28;29.65;;;;;;;;;;8205437;28;20490;-68
2021/01/17 18:39:17;;;;;;;97.90;38.85;;;;;;;;;;8288733;28;20466;-67
2021/01/17 18:43:20;;;;;;;97.45;35.28;;;;;;;;;;8289757;28;20493;-67
2021/01/17 18:47:24;;;;;;;53.47;25.40;;;;;;;;;;8289286;28;20478;-67
2021/01/17 18:51:29;;;;;;;78.80;30.40;;;;;;;;;;8271575;28;20474;-69
2021/01/17 18:55:34;;;;;;;92.65;33.50;;;;;;;;;;8266862;28;20504;-67
2021/01/17 18:59:41;;;;;;;76.00;29.15;;;;;;;;;;8301353;28;20474;-68
2021/01/17 19:03:47;;;;;;;79.22;31.52;;;;;;;;;;8223713;28;20064;-70
2021/01/17 19:07:50;;;;;;;83.53;28.48;;;;;;;;;;8252436;28;20044;-68
2021/01/17 19:11:59;;;;;;;84.45;32.38;;;;;;;;;;8233509;28;20037;-68
2021/01/17 19:16:05;;;;;;;99.45;40.75;;;;;;;;;;8251599;28;20079;-68
2021/01/17 19:20:10;;;;;;;82.47;35.33;;;;;;;;;;8232526;28;20489;-69
2021/01/17 19:24:14;;;;;;;86.53;32.92;;;;;;;;;;8241429;28;20374;-68
2021/01/17 19:28:17;;;;;;;133.35;37.47;;;;;;;;;;8257309;28;20383;-69
2021/01/17 19:32:20;;;;;;;119.35;34.03;;;;;;;;;;8243826;28;20365;-69
2021/01/17 19:36:23;;;;;;;120.85;39.90;;;;;;;;;;8292890;28;20506;-69
2021/01/17 19:40:28;;;;;;;121.35;35.25;;;;;;;;;;8294197;28;20044;-69
2021/01/17 19:44:31;;;;;;;179.13;52.67;;;;;;;;;;8259941;28;20490;-69
2021/01/17 19:48:34;;;;;;;118.10;34.67;;;;;;;;;;8288996;28;20481;-68
2021/01/17 19:52:37;;;;;;;100.00;35.10;;;;;;;;;;8292764;28;20394;-69
2021/01/17 19:56:41;;;;;;;102.45;38.90;;;;;;;;;;8295649;28;20344;-69
2021/01/17 20:00:45;;;;;;;116.95;41.80;;;;;;;;;;8293785;28;20071;-70
2021/01/17 20:04:48;;;;;;;166.88;56.33;;;;;;;;;;8291285;28;20351;-69
2021/01/17 20:08:52;;;;;;;202.77;63.05;;;;;;;;;;8293958;28;20471;-69
2021/01/17 20:12:55;;;;;;;180.02;60.38;;;;;;;;;;8291697;28;20375;-69
2021/01/17 20:16:58;;;;;;;224.00;67.60;;;;;;;;;;8292085;28;20417;-68
2021/01/17 20:21:01;;;;;;;242.68;70.03;;;;;;;;;;8292974;28;20367;-69
2021/01/17 20:25:05;;;;;;;222.52;68.80;;;;;;;;;;8291769;28;20501;-69
2021/01/17 20:29:10;;;;;;;212.57;69.43;;;;;;;;;;8289032;28;20458;-68
2021/01/17 20:33:16;;;;;;;237.70;74.35;;;;;;;;;;8291079;28;20390;-69
2021/01/17 20:37:19;;;;;;;218.20;68.40;;;;;;;;;;8292492;28;20485;-68
2021/01/17 20:41:23;;;;;;;220.23;67.63;;;;;;;;;;8290215;28;20387;-68
2021/01/17 20:45:46;;;;;;;202.40;68.57;;;;;;;;;;8292566;28;20489;-68
2021/01/17 20:49:49;;;;;;;191.75;60.97;;;;;;;;;;8291067;28;20102;-68
2021/01/17 20:53:54;;;;;;;183.60;63.13;;;;;;;;;;8291731;28;20356;-69
2021/01/17 20:57:58;;;;;;;209.60;70.68;;;;;;;;;;8290396;28;20402;-68
2021/01/17 21:02:02;;;;;;;209.75;76.68;;;;;;;;;;8236825;28;20475;-69
2021/01/17 21:06:14;;;;;;;195.98;64.05;;;;;;;;;;8325371;28;20474;-69
2021/01/17 21:10:17;;;;;;;191.85;64.72;;;;;;;;;;8306431;28;20371;-68
2021/01/17 21:14:21;;;;;;;176.27;57.72;;;;;;;;;;8324860;28;20356;-68
2021/01/17 21:18:24;;;;;;;299.58;98.40;;;;;;;;;;8324457;28;20074;-68
2021/01/17 21:22:29;;;;;;;217.13;69.45;;;;;;;;;;8324876;28;20408;-69
2021/01/17 21:26:32;;;;;;;450.40;128.23;;;;;;;;;;8220987;28;20045;-68
2021/01/17 21:30:35;;;;;;;289.38;85.72;;;;;;;;;;8221314;28;20387;-70
2021/01/17 21:34:38;;;;;;;235.95;76.28;;;;;;;;;;8205458;28;20184;-68
2021/01/17 21:38:51;;;;;;;262.35;88.38;;;;;;;;;;8221647;28;20361;-68
2021/01/17 21:42:54;;;;;;;263.55;85.18;;;;;;;;;;8203894;28;20091;-69
2021/01/17 21:46:57;;;;;;;322.73;89.47;;;;;;;;;;8189219;28;20368;-68
2021/01/17 21:51:00;;;;;;;527.13;144.98;;;;;;;;;;8204871;28;20041;-69
2021/01/17 21:55:05;;;;;;;535.53;151.02;;;;;;;;;;8221308;28;20558;-68
2021/01/17 21:59:08;;;;;;;362.40;107.55;;;;;;;;;;8221115;28;20479;-68
2021/01/17 22:03:11;;;;;;;305.52;89.05;;;;;;;;;;8204551;28;20528;-69
2021/01/17 22:07:14;;;;;;;285.50;87.72;;;;;;;;;;8222173;28;20488;-69
2021/01/17 22:11:24;;;;;;;324.80;85.75;;;;;;;;;;8204225;28;20535;-69
2021/01/17 22:15:27;;;;;;;283.10;88.00;;;;;;;;;;8252916;28;20382;-68
2021/01/17 22:19:30;;;;;;;252.43;80.95;;;;;;;;;;8305036;28;20470;-69
2021/01/17 22:23:36;;;;;;;355.67;90.45;;;;;;;;;;8304587;28;20354;-69
2021/01/17 22:27:41;;;;;;;220.57;69.30;;;;;;;;;;8303743;28;20578;-69
2021/01/17 22:31:44;;;;;;;198.27;61.42;;;;;;;;;;8288240;28;20381;-69
2021/01/17 22:35:47;;;;;;;225.20;71.85;;;;;;;;;;8236482;28;20387;-68
2021/01/17 22:39:51;;;;;;;194.80;62.13;;;;;;;;;;8251778;28;20499;-69
2021/01/17 22:43:54;;;;;;;192.40;60.72;;;;;;;;;;8252225;28;20472;-68
2021/01/17 22:47:58;;;;;;;203.15;61.65;;;;;;;;;;8251975;28;20436;-68
2021/01/17 22:52:03;;;;;;;202.05;64.47;;;;;;;;;;8236382;28;20071;-68
2021/01/17 22:56:06;;;;;;;275.20;77.90;;;;;;;;;;8240039;28;20505;-68
2021/01/17 23:00:16;;;;;;;299.83;88.97;;;;;;;;;;8242463;28;20057;-68
2021/01/17 23:04:22;;;;;;;283.58;85.15;;;;;;;;;;8263492;28;20387;-68
2021/01/17 23:08:25;;;;;;;244.70;75.78;;;;;;;;;;8311019;28;20055;-69
2021/01/17 23:12:28;;;;;;;255.73;74.57;;;;;;;;;;8328810;28;20047;-69
2021/01/17 23:16:31;;;;;;;177.18;58.80;;;;;;;;;;8310530;28;20370;-68
2021/01/17 23:20:36;;;;;;;156.10;51.63;;;;;;;;;;8327494;28;20416;-68
2021/01/17 23:24:39;;;;;;;156.80;48.33;;;;;;;;;;8327732;28;20466;-68
2021/01/17 23:28:44;;;;;;;238.38;77.85;;;;;;;;;;8327707;28;20386;-69
2021/01/17 23:32:48;;;;;;;152.48;50.50;;;;;;;;;;8327796;28;20382;-68
2021/01/17 23:36:56;;;;;;;186.70;53.42;;;;;;;;;;8309511;28;20385;-68
2021/01/17 23:40:59;;;;;;;157.68;52.20;;;;;;;;;;8328128;28;20052;-68
2021/01/17 23:45:03;;;;;;;149.48;47.72;;;;;;;;;;8327629;28;20377;-68
2021/01/17 23:49:06;;;;;;;147.27;47.97;;;;;;;;;;8327494;28;20378;-68
2021/01/17 23:53:09;;;;;;;150.13;42.15;;;;;;;;;;8292472;28;20048;-68
2021/01/17 23:57:12;;;;;;;111.00;39.97;;;;;;;;;;8309413;28;20378;-68
